Time;durP1;ratioP1;P1;durP2;ratioP2;P2;SDS_P1;SDS_P2;PMS_P1;PMS_P2;Temp;Humidity;BMP_temperature;BMP_pressure;BME280_temperature;BME280_humidity;BME280_pressure;Samples;Min_cycle;Max_cycle;Signal;HPM_P1;HPM_P2
2022/09/25 00:01:36;;;;;;;7.77;3.80;;;;;;;12.12;76.80;94846.19;5070965;28;20239;-60
2022/09/25 00:04:01;;;;;;;6.53;3.90;;;;;;;12.17;75.06;94875.44;5073850;28;20212;-60
2022/09/25 00:06:28;;;;;;;4.83;3.90;;;;;;;12.19;74.65;94888.03;5073424;28;20650;-60
2022/09/25 00:08:55;;;;;;;3.70;3.10;;;;;;;11.99;74.30;94897.41;5071856;28;20216;-62
2022/09/25 00:11:26;;;;;;;4.23;2.80;;;;;;;11.94;73.14;94906.41;5073539;28;20200;-62
2022/09/25 00:13:53;;;;;;;3.50;3.20;;;;;;;12.08;71.89;94936.59;5073434;28;20682;-62
2022/09/25 00:16:22;;;;;;;4.03;2.70;;;;;;;12.00;72.27;94936.44;5073725;28;20229;-60
2022/09/25 00:21:33;;;;;;;3.73;2.77;;;;;;;11.73;73.13;94907.31;5073238;28;20591;-62
2022/09/25 00:24:02;;;;;;;4.07;2.80;;;;;;;11.67;73.56;94896.81;5072037;28;20252;-59
2022/09/25 00:26:30;;;;;;;3.33;2.90;;;;;;;11.55;74.26;94875.69;5073079;28;20275;-59
2022/09/25 00:28:55;;;;;;;3.40;3.10;;;;;;;11.58;74.31;94877.19;5072982;28;20212;-59
2022/09/25 00:31:28;;;;;;;6.57;3.40;;;;;;;11.44;74.29;94875.81;5073065;28;20177;-58
2022/09/25 00:33:57;;;;;;;3.70;3.00;;;;;;;11.54;75.00;94848.66;5088804;28;20216;-60
2022/09/25 00:36:22;;;;;;;3.30;2.83;;;;;;;11.38;75.28;94845.78;5071773;28;20198;-61
2022/09/25 00:38:48;;;;;;;5.27;3.27;;;;;;;11.30;75.05;94849.91;5080823;22;20216;-62
2022/09/25 00:41:16;;;;;;;3.33;2.90;;;;;;;11.25;74.89;94845.19;5071685;28;20189;-58
2022/09/25 00:43:49;;;;;;;5.90;3.13;;;;;;;11.28;74.88;94860.22;5072540;28;20196;-63
2022/09/25 00:46:51;;;;;;;3.53;3.00;;;;;;;11.06;75.62;94822.25;5071296;28;20193;-63
2022/09/25 00:49:22;;;;;;;4.33;3.27;;;;;;;11.09;76.55;94801.63;5080459;22;20778;-59
2022/09/25 00:52:00;;;;;;;3.73;3.17;;;;;;;11.19;76.42;94799.91;5072836;28;20189;-63
2022/09/25 00:54:49;;;;;;;4.27;3.40;;;;;;;11.14;77.17;94785.97;5072637;28;20220;-62
2022/09/25 00:57:20;;;;;;;4.67;3.50;;;;;;;11.27;76.54;94810.25;5073016;28;20655;-59
2022/09/25 00:59:51;;;;;;;3.23;2.97;;;;;;;11.22;76.95;94807.31;5072672;28;20223;-61
2022/09/25 01:02:23;;;;;;;7.87;3.30;;;;;;;11.16;74.84;94850.25;5072881;28;20204;-62
2022/09/25 01:04:50;;;;;;;3.40;2.93;;;;;;;11.14;75.60;94824.16;5072509;28;20209;-62
2022/09/25 01:07:16;;;;;;;3.20;2.90;;;;;;;11.11;75.82;94821.88;5072500;28;20196;-61
2022/09/25 01:09:44;;;;;;;3.53;2.93;;;;;;;11.17;76.93;94801.78;5072282;28;20208;-59
2022/09/25 01:12:09;;;;;;;3.87;3.17;;;;;;;11.22;77.72;94776.78;5072121;28;20185;-59
2022/09/25 01:14:36;;;;;;;3.93;2.80;;;;;;;11.22;78.44;94763.25;5054664;28;20585;-62
2022/09/25 01:17:15;;;;;;;3.60;3.10;;;;;;;11.30;75.55;94827.81;5072436;28;20246;-61
2022/09/25 01:20:00;;;;;;;2.67;2.47;;;;;;;11.10;76.01;94805.78;5072282;28;20254;-62
2022/09/25 01:22:52;;;;;;;6.30;3.67;;;;;;;11.02;76.28;94808.19;5071054;28;20640;-60
2022/09/25 01:25:55;;;;;;;4.27;3.40;;;;;;;11.00;77.25;94794.78;5052716;28;20224;-58
2022/09/25 01:28:41;;;;;;;3.37;2.97;;;;;;;10.78;78.03;94778.00;5072415;28;20580;-63
2022/09/25 01:31:14;;;;;;;3.87;2.77;;;;;;;10.64;78.36;94758.00;5070730;28;20184;-60
2022/09/25 01:33:49;;;;;;;2.90;2.63;;;;;;;10.39;79.92;94727.91;5072325;28;20216;-61
2022/09/25 01:36:20;;;;;;;3.40;2.90;;;;;;;10.38;80.22;94725.50;5072268;28;20200;-61
2022/09/25 01:39:16;;;;;;;3.83;3.13;;;;;;;10.26;81.40;94711.25;5071926;28;20765;-61
2022/09/25 01:42:08;;;;;;;3.53;2.97;;;;;;;10.06;82.17;94700.97;5072029;28;20254;-62
2022/09/25 01:44:48;;;;;;;3.67;3.13;;;;;;;10.08;82.56;94696.56;5071871;28;20273;-61
2022/09/25 01:47:22;;;;;;;4.17;2.93;;;;;;;10.04;84.02;94681.69;5087536;28;20665;-62
2022/09/25 01:49:54;;;;;;;3.70;3.23;;;;;;;10.22;82.20;94715.78;5070694;28;20212;-58
2022/09/25 01:52:26;;;;;;;3.43;3.13;;;;;;;10.19;82.42;94717.75;5070415;28;20262;-61
2022/09/25 01:55:05;;;;;;;3.33;3.03;;;;;;;10.18;82.65;94713.63;5071769;28;20209;-61
2022/09/25 01:57:40;;;;;;;3.37;2.70;;;;;;;10.08;84.08;94694.03;5071895;28;20211;-60
2022/09/25 02:00:07;;;;;;;3.50;3.03;;;;;;;10.34;83.28;94713.97;5071966;28;20207;-63
2022/09/25 02:02:40;;;;;;;5.20;3.53;;;;;;;10.45;81.73;94744.38;5071757;28;20195;-61
2022/09/25 02:05:18;;;;;;;3.87;3.40;;;;;;;10.41;81.49;94741.28;5071585;28;20701;-60
2022/09/25 02:07:49;;;;;;;5.03;3.40;;;;;;;10.47;81.22;94756.03;5071698;28;20207;-61
2022/09/25 02:10:23;;;;;;;3.30;3.00;;;;;;;10.39;81.42;94737.25;5088481;22;20283;-62
2022/09/25 02:12:53;;;;;;;5.07;3.10;;;;;;;10.23;82.63;94711.50;5050303;28;20284;-59
2022/09/25 02:15:31;;;;;;;5.60;3.67;;;;;;;10.24;83.02;94708.81;5051439;28;20214;-61
2022/09/25 02:20:51;;;;;;;3.83;3.40;;;;;;;10.24;82.67;94713.91;5052189;28;20193;-60
2022/09/25 02:23:24;;;;;;;4.27;3.00;;;;;;;10.12;83.62;94712.38;5051459;28;20687;-62
2022/09/25 02:26:07;;;;;;;4.47;3.30;;;;;;;9.99;85.25;94684.63;5051070;28;20289;-61
2022/09/25 02:28:34;;;;;;;4.10;3.70;;;;;;;10.01;85.00;94697.19;5051314;28;20592;-61
2022/09/25 02:31:03;;;;;;;3.53;3.17;;;;;;;10.21;83.53;94718.44;5051388;28;20310;-59
2022/09/25 02:33:28;;;;;;;5.03;3.13;;;;;;;10.11;84.36;94716.69;5051134;28;20185;-61
2022/09/25 02:35:54;;;;;;;4.07;3.40;;;;;;;10.28;83.55;94737.34;5051327;28;20197;-59
2022/09/25 02:38:20;;;;;;;3.97;3.40;;;;;;;10.18;83.38;94731.41;5051040;28;20182;-60
2022/09/25 02:41:00;;;;;;;4.23;3.23;;;;;;;10.26;84.25;94719.66;5051006;28;20285;-60
2022/09/25 02:44:04;;;;;;;4.90;3.57;;;;;;;10.22;84.47;94710.69;5034522;28;20186;-60
2022/09/25 02:46:54;;;;;;;3.83;3.37;;;;;;;10.01;86.53;94687.03;5051103;28;20189;-61
2022/09/25 02:49:50;;;;;;;4.30;3.73;;;;;;;10.34;84.95;94714.78;5050782;28;20220;-59
2022/09/25 02:52:22;;;;;;;4.00;3.23;;;;;;;10.11;86.29;94693.81;5048286;28;20284;-60
2022/09/25 02:55:14;;;;;;;7.00;3.50;;;;;;;9.90;87.90;94687.09;5065193;22;20231;-59
2022/09/25 02:58:05;;;;;;;7.07;3.83;;;;;;;10.17;85.66;94717.09;5070995;28;20185;-61
2022/09/25 03:00:36;;;;;;;3.57;3.27;;;;;;;10.26;84.99;94726.50;5054818;28;20228;-59
2022/09/25 03:03:06;;;;;;;3.47;3.17;;;;;;;10.11;86.28;94710.78;5070876;28;20184;-61
2022/09/25 03:05:32;;;;;;;3.87;3.43;;;;;;;10.08;86.15;94724.50;5070884;28;20197;-60
2022/09/25 03:10:45;;;;;;;2.77;2.57;;;;;;;9.88;84.01;94745.63;5071512;28;20218;-62
2022/09/25 03:13:30;;;;;;;5.40;3.07;;;;;;;9.74;84.21;94730.69;5070891;28;20188;-61
2022/09/25 03:15:59;;;;;;;3.67;3.00;;;;;;;9.72;84.90;94737.63;5069839;28;20200;-62
2022/09/25 03:18:27;;;;;;;4.33;3.00;;;;;;;9.72;84.24;94752.84;5070870;28;20189;-61
2022/09/25 03:20:52;;;;;;;5.87;3.27;;;;;;;9.54;86.03;94712.91;5070477;28;20333;-61
2022/09/25 03:23:18;;;;;;;3.80;2.83;;;;;;;9.67;85.01;94724.50;5069167;28;20275;-62
2022/09/25 03:25:43;;;;;;;4.70;3.00;;;;;;;9.72;84.54;94724.94;5070751;28;20193;-62
2022/09/25 03:28:10;;;;;;;3.37;2.87;;;;;;;9.74;84.98;94720.53;5070350;28;20197;-61
2022/09/25 03:30:39;;;;;;;5.23;3.40;;;;;;;9.73;84.41;94729.09;5070654;28;20212;-59
2022/09/25 03:33:10;;;;;;;3.37;3.07;;;;;;;9.75;84.69;94734.03;5070510;28;20263;-61
2022/09/25 03:35:38;;;;;;;3.23;2.87;;;;;;;9.75;84.49;94732.31;5071722;28;20216;-62
2022/09/25 03:38:05;;;;;;;5.20;3.10;;;;;;;9.79;84.24;94728.59;5074051;28;20623;-62
2022/09/25 03:40:30;;;;;;;2.87;2.57;;;;;;;9.71;84.65;94720.00;5073779;28;20270;-60
2022/09/25 03:42:56;;;;;;;2.83;2.57;;;;;;;9.79;84.99;94727.78;5074054;28;20185;-61
2022/09/25 03:45:21;;;;;;;4.03;3.40;;;;;;;9.53;85.52;94703.69;5074268;28;20243;-61
2022/09/25 03:47:46;;;;;;;3.37;2.90;;;;;;;9.60;85.53;94708.16;5073938;28;20173;-62
2022/09/25 03:50:12;;;;;;;3.50;3.00;;;;;;;9.69;84.83;94737.88;5073856;28;20239;-62
2022/09/25 03:52:38;;;;;;;3.53;2.97;;;;;;;9.57;86.81;94710.94;5072520;28;20181;-62
2022/09/25 03:55:04;;;;;;;4.27;3.30;;;;;;;9.73;86.61;94701.19;5073787;28;20204;-61
2022/09/25 03:57:30;;;;;;;3.20;2.87;;;;;;;9.93;85.58;94723.22;5072328;28;20196;-61
2022/09/25 04:00:00;;;;;;;3.77;3.37;;;;;;;9.93;85.85;94724.94;5073427;28;20208;-61
2022/09/25 04:02:27;;;;;;;4.37;3.40;;;;;;;10.10;84.54;94752.34;5073678;28;20185;-61
2022/09/25 04:04:53;;;;;;;6.47;3.00;;;;;;;10.23;84.54;94755.50;5072228;28;20249;-62
2022/09/25 04:07:23;;;;;;;5.60;3.70;;;;;;;10.10;85.37;94748.06;5073639;28;20253;-61
2022/09/25 04:09:49;;;;;;;5.30;3.70;;;;;;;10.19;85.40;94735.53;5072329;28;20601;-61
2022/09/25 04:12:14;;;;;;;7.37;3.57;;;;;;;10.52;83.01;94788.69;5073535;28;20264;-61
2022/09/25 04:14:40;;;;;;;4.67;3.40;;;;;;;10.00;85.57;94754.78;5073483;28;20205;-62
2022/09/25 04:17:06;;;;;;;4.77;3.80;;;;;;;9.80;87.59;94725.13;5073342;28;20260;-62
2022/09/25 04:19:32;;;;;;;4.43;3.43;;;;;;;10.17;84.93;94768.69;5073449;28;20343;-61
2022/09/25 04:21:58;;;;;;;3.43;2.97;;;;;;;9.94;84.41;94762.09;5073271;28;20674;-61
2022/09/25 04:27:08;;;;;;;5.13;3.37;;;;;;;9.90;85.03;94760.72;5073253;28;20196;-62
2022/09/25 04:29:33;;;;;;;3.30;2.87;;;;;;;9.71;86.08;94745.38;5072992;28;20218;-62
2022/09/25 04:34:43;;;;;;;4.70;3.37;;;;;;;9.67;85.10;94764.31;5073624;28;20207;-62
2022/09/25 04:37:09;;;;;;;3.57;2.97;;;;;;;9.49;87.06;94730.25;5073090;28;20188;-64
2022/09/25 04:39:34;;;;;;;3.70;3.27;;;;;;;9.45;86.67;94744.09;5073167;28;20209;-59
2022/09/25 04:42:00;;;;;;;4.53;3.67;;;;;;;9.34;87.72;94727.19;5072009;28;20193;-61
2022/09/25 04:44:26;;;;;;;8.63;4.20;;;;;;;9.35;88.06;94721.19;5073027;28;20204;-62
2022/09/25 04:46:51;;;;;;;4.47;3.57;;;;;;;9.40;89.86;94705.59;5072444;28;20565;-62
2022/09/25 04:49:17;;;;;;;4.70;3.90;;;;;;;9.62;88.85;94735.94;5071453;28;20220;-61
2022/09/25 04:51:42;;;;;;;5.60;3.93;;;;;;;9.58;89.01;94712.53;5073041;28;20181;-61
2022/09/25 04:54:08;;;;;;;5.33;3.40;;;;;;;9.79;86.20;94764.16;5072810;28;20228;-60
2022/09/25 04:56:33;;;;;;;4.20;2.73;;;;;;;9.59;85.83;94757.31;5072765;28;20181;-59
2022/09/25 04:58:59;;;;;;;4.57;3.47;;;;;;;9.58;87.31;94727.78;5072610;28;20208;-59
2022/09/25 05:01:24;;;;;;;4.60;3.30;;;;;;;9.65;85.42;94761.91;5072696;28;20189;-61
2022/09/25 05:03:52;;;;;;;3.20;2.90;;;;;;;9.64;86.39;94755.19;5071333;28;20444;-61
2022/09/25 05:06:18;;;;;;;3.37;2.93;;;;;;;9.73;86.67;94751.13;5072499;28;20189;-62
2022/09/25 05:08:48;;;;;;;2.83;2.63;;;;;;;9.84;86.74;94771.38;5072459;28;20208;-62
2022/09/25 05:11:13;;;;;;;4.20;3.10;;;;;;;9.88;86.83;94765.13;5072264;28;20268;-59
2022/09/25 05:13:39;;;;;;;4.40;3.63;;;;;;;10.00;83.70;94820.81;5072421;28;20737;-62
2022/09/25 05:16:05;;;;;;;3.53;2.93;;;;;;;9.99;84.03;94811.59;5072872;28;20187;-62
2022/09/25 05:18:31;;;;;;;4.00;3.20;;;;;;;9.97;83.01;94817.72;5071127;28;20271;-59
2022/09/25 05:20:56;;;;;;;3.83;3.20;;;;;;;9.80;83.46;94796.22;5071323;28;20192;-60
2022/09/25 05:23:22;;;;;;;4.20;2.97;;;;;;;9.72;85.06;94767.28;5072383;28;20181;-60
2022/09/25 05:25:56;;;;;;;4.57;3.47;;;;;;;9.49;88.08;94725.16;5071221;28;20219;-59
2022/09/25 05:28:23;;;;;;;4.57;3.50;;;;;;;9.75;86.17;94750.09;5072408;28;20208;-61
2022/09/25 05:30:49;;;;;;;6.63;3.60;;;;;;;9.83;85.08;94773.13;5072497;28;20184;-61
2022/09/25 05:33:16;;;;;;;4.80;3.70;;;;;;;9.79;85.40;94769.22;5072367;28;20280;-62
2022/09/25 05:35:42;;;;;;;4.60;3.33;;;;;;;9.83;85.73;94755.34;5070779;28;20223;-58
2022/09/25 05:38:07;;;;;;;4.43;3.47;;;;;;;10.04;83.90;94793.44;5072257;28;20188;-62
2022/09/25 05:40:33;;;;;;;3.57;3.00;;;;;;;10.07;83.83;94783.88;5072507;28;20205;-61
2022/09/25 05:43:01;;;;;;;5.43;3.37;;;;;;;10.18;83.62;94793.16;5072046;28;20181;-61
2022/09/25 05:45:26;;;;;;;3.23;2.93;;;;;;;10.28;83.84;94801.66;5072120;28;20234;-62
2022/09/25 05:48:02;;;;;;;4.47;3.73;;;;;;;10.33;82.57;94819.06;5072070;28;20185;-61
2022/09/25 05:50:28;;;;;;;4.33;2.83;;;;;;;10.39;82.70;94819.38;5072095;28;20579;-59
2022/09/25 05:52:55;;;;;;;6.20;3.37;;;;;;;10.48;82.52;94822.91;5070564;28;20185;-61
2022/09/25 05:55:21;;;;;;;5.67;3.33;;;;;;;10.52;83.53;94803.94;5071854;28;20268;-58
2022/09/25 05:57:46;;;;;;;4.30;3.20;;;;;;;10.83;82.46;94829.25;5071890;28;20227;-62
2022/09/25 06:00:12;;;;;;;4.63;3.30;;;;;;;11.01;82.60;94831.22;5070933;28;20209;-61
2022/09/25 06:02:38;;;;;;;9.77;5.93;;;;;;;11.01;84.51;94781.13;5070334;28;20195;-61
2022/09/25 06:05:04;;;;;;;11.20;6.93;;;;;;;11.03;85.14;94786.09;5071995;28;20209;-61
2022/09/25 06:07:29;;;;;;;9.17;6.97;;;;;;;11.03;85.17;94781.00;5071732;28;20188;-59
2022/09/25 06:09:55;;;;;;;12.90;8.10;;;;;;;10.95;85.83;94771.47;5071747;28;20212;-60
2022/09/25 06:12:22;;;;;;;13.83;7.70;;;;;;;10.95;85.76;94772.28;5071590;28;20193;-60
2022/09/25 06:14:47;;;;;;;13.67;8.23;;;;;;;10.71;88.57;94727.75;5071596;28;20208;-61
2022/09/25 06:17:13;;;;;;;12.53;8.60;;;;;;;10.67;89.54;94727.22;5070133;28;20177;-61
2022/09/25 06:19:38;;;;;;;13.70;8.63;;;;;;;10.87;87.76;94756.03;5071312;28;20209;-62
2022/09/25 06:22:04;;;;;;;15.30;8.60;;;;;;;11.07;86.06;94780.59;5071236;28;20188;-63
2022/09/25 06:24:29;;;;;;;15.50;9.50;;;;;;;10.96;86.13;94771.34;5071449;28;20209;-63
2022/09/25 06:26:54;;;;;;;12.57;9.23;;;;;;;10.85;87.66;94746.00;5071483;28;20235;-61
2022/09/25 06:29:20;;;;;;;15.50;10.20;;;;;;;10.99;86.21;94788.88;5071505;28;20619;-59
2022/09/25 06:31:45;;;;;;;16.53;8.80;;;;;;;11.30;85.55;94804.91;5071334;28;20722;-58
2022/09/25 06:34:11;;;;;;;10.10;8.33;;;;;;;11.75;100.00;94752.63;5069897;28;20214;-58
2022/09/25 06:36:37;;;;;;;12.07;8.83;;;;;;;11.85;86.07;94844.31;5071088;28;20569;-59
2022/09/25 06:39:03;;;;;;;14.87;9.20;;;;;;;11.92;84.76;94849.69;5070999;28;20208;-61
2022/09/25 06:41:29;;;;;;;14.07;9.20;;;;;;;11.97;83.38;94873.81;5070947;28;20192;-61
2022/09/25 06:43:54;;;;;;;10.63;7.47;;;;;;;12.34;80.70;94917.31;5071056;28;20201;-62
2022/09/25 06:46:20;;;;;;;12.60;7.90;;;;;;;12.11;81.27;94903.19;5071056;28;20188;-61
2022/09/25 06:48:52;;;;;;;8.87;6.70;;;;;;;12.19;80.46;94908.44;5069554;28;20217;-63
2022/09/25 06:51:19;;;;;;;8.47;7.00;;;;;;;12.41;79.20;94920.91;5071080;28;20276;-63
2022/09/25 06:53:44;;;;;;;9.90;6.67;;;;;;;12.47;76.50;94972.19;5071061;28;20208;-60
2022/09/25 06:56:10;;;;;;;8.73;6.87;;;;;;;12.27;78.03;94931.50;5069621;28;20195;-60
2022/09/25 06:58:36;;;;;;;10.67;6.63;;;;;;;12.47;77.31;94949.22;5070790;28;20181;-63
2022/09/25 07:01:02;;;;;;;8.57;6.37;;;;;;;12.57;77.11;94947.50;5071106;28;20188;-61
2022/09/25 07:03:46;;;;;;;7.90;6.77;;;;;;;12.55;77.89;94916.22;5070639;28;20184;-59
2022/09/25 07:06:20;;;;;;;7.80;6.60;;;;;;;12.56;78.04;94909.38;5070284;28;20570;-60
2022/09/25 07:08:47;;;;;;;9.53;6.00;;;;;;;12.65;77.56;94939.16;5069221;28;20626;-61
2022/09/25 07:11:16;;;;;;;8.87;6.27;;;;;;;12.74;76.98;94951.13;5070670;28;20242;-61
2022/09/25 07:13:41;;;;;;;8.53;6.43;;;;;;;12.85;76.10;94956.06;5070509;28;20704;-61
2022/09/25 07:16:11;;;;;;;9.33;7.37;;;;;;;12.96;76.46;94958.47;5070814;28;20239;-63
2022/09/25 07:18:37;;;;;;;8.03;6.40;;;;;;;13.23;74.95;94996.06;5070578;28;20209;-61
2022/09/25 07:21:08;;;;;;;10.00;7.47;;;;;;;13.26;76.74;94960.84;5070699;28;20181;-60
2022/09/25 07:23:34;;;;;;;7.80;6.00;;;;;;;13.43;73.02;95041.84;5070556;28;20291;-59
2022/09/25 07:26:05;;;;;;;45.87;27.93;;;;;;;13.51;73.54;95025.03;5070480;28;20224;-63
2022/09/25 07:28:31;;;;;;;9.60;7.33;;;;;;;13.43;73.44;95008.63;5077957;22;20412;-63
2022/09/25 07:30:56;;;;;;;8.60;6.77;;;;;;;13.67;73.75;95023.53;5070393;28;20189;-63
2022/09/25 07:33:23;;;;;;;8.50;6.97;;;;;;;13.52;71.15;95070.06;5070355;28;20181;-63
2022/09/25 07:35:51;;;;;;;14.32;8.52;;;;;;;13.52;72.36;95039.41;5053338;28;20566;-62
2022/09/25 07:38:17;;;;;;;14.43;9.30;;;;;;;13.45;71.28;95070.59;5058044;28;20189;-61
2022/09/25 07:40:42;;;;;;;11.33;7.10;;;;;;;13.31;72.54;95029.41;5048767;28;20652;-61
2022/09/25 07:43:08;;;;;;;11.63;8.67;;;;;;;13.37;72.71;95008.41;5050257;28;20193;-62
2022/09/25 07:45:34;;;;;;;11.27;7.73;;;;;;;13.51;71.69;95027.59;5050179;28;20240;-61
2022/09/25 07:48:01;;;;;;;9.13;6.60;;;;;;;13.50;68.50;95080.41;5050186;28;20198;-62
2022/09/25 07:50:28;;;;;;;8.93;6.40;;;;;;;13.73;68.75;95073.25;5050007;28;20281;-63
2022/09/25 07:52:54;;;;;;;7.30;5.88;;;;;;;13.77;66.91;95095.84;5032247;28;20225;-62
2022/09/25 07:55:20;;;;;;;9.57;7.30;;;;;;;13.95;66.79;95085.69;5049974;28;20742;-63
2022/09/25 07:57:45;;;;;;;6.53;5.83;;;;;;;13.90;68.54;95036.72;5049888;28;20651;-62
2022/09/25 08:00:12;;;;;;;9.10;6.07;;;;;;;13.98;68.86;95016.38;5049815;28;20296;-63
2022/09/25 08:02:37;;;;;;;10.68;6.07;;;;;;;14.04;67.96;95028.59;5050000;28;20191;-64
2022/09/25 08:05:03;;;;;;;8.73;6.30;;;;;;;14.18;67.66;95041.72;5048663;28;20288;-63
2022/09/25 08:07:29;;;;;;;13.95;7.80;;;;;;;14.37;66.70;95070.75;5049965;28;20620;-61
2022/09/25 08:09:54;;;;;;;9.57;7.15;;;;;;;14.51;65.66;95083.06;5048764;28;20729;-62
2022/09/25 08:12:24;;;;;;;6.15;5.55;;;;;;;14.66;63.38;95135.38;5050026;28;20578;-62
2022/09/25 08:14:50;;;;;;;10.38;5.75;;;;;;;14.85;63.59;95120.72;5049762;28;20205;-63
2022/09/25 08:17:16;;;;;;;7.72;5.65;;;;;;;15.04;63.09;95125.72;5049363;28;20242;-63
2022/09/25 08:19:41;;;;;;;9.05;5.57;;;;;;;15.08;61.88;95150.09;5049746;28;20288;-62
2022/09/25 08:22:07;;;;;;;11.52;6.10;;;;;;;15.33;60.92;95160.56;5049269;28;20551;-62
2022/09/25 08:24:32;;;;;;;7.47;5.72;;;;;;;15.49;60.32;95164.13;5053660;28;20752;-59
2022/09/25 08:26:57;;;;;;;6.55;5.50;;;;;;;15.66;60.58;95152.22;5053172;28;20193;-62
2022/09/25 08:29:23;;;;;;;10.27;5.85;;;;;;;15.89;61.83;95104.66;5053442;28;20270;-61
2022/09/25 08:31:49;;;;;;;6.55;5.03;;;;;;;16.16;57.06;95232.75;5053352;28;20288;-61
2022/09/25 08:34:15;;;;;;;12.00;5.35;;;;;;;16.00;58.05;95175.41;5053029;28;20237;-60
2022/09/25 08:36:41;;;;;;;5.70;4.38;;;;;;;16.24;54.86;95260.25;5052884;28;20201;-62
2022/09/25 08:39:07;;;;;;;5.50;4.85;;;;;;;16.45;53.75;95269.19;5052944;28;20717;-62
2022/09/25 08:41:53;;;;;;;6.70;4.43;;;;;;;16.32;53.44;95261.06;5051899;28;20276;-62
2022/09/25 08:44:24;;;;;;;6.63;5.10;;;;;;;16.41;54.42;95211.44;5052709;28;20201;-62
2022/09/25 08:50:12;;;;;;;4.57;3.75;;;;;;;17.32;52.28;95284.44;5052869;28;20283;-61
2022/09/25 08:52:43;;;;;;;7.40;4.22;;;;;;;17.30;52.82;95242.69;5053099;28;20197;-62
2022/09/25 08:58:25;;;;;;;5.95;4.97;;;;;;;18.05;50.49;95311.19;5053057;28;20243;-62
2022/09/25 09:00:59;;;;;;;6.13;5.10;;;;;;;18.43;49.37;95337.16;5051245;28;20219;-63
2022/09/25 09:03:29;;;;;;;5.50;4.82;;;;;;;18.47;49.18;95327.34;5052413;28;20190;-61
2022/09/25 09:06:05;;;;;;;6.93;4.53;;;;;;;18.72;48.64;95335.88;5052529;28;20190;-62
2022/09/25 09:08:35;;;;;;;4.88;4.05;;;;;;;19.17;49.30;95303.38;5052721;28;20216;-62
2022/09/25 09:11:15;;;;;;;11.93;4.95;;;;;;;19.29;46.44;95384.56;5052648;28;20212;-59
2022/09/25 09:14:04;;;;;;;6.72;4.97;;;;;;;19.47;45.98;95387.00;5051365;28;20236;-62
2022/09/25 09:16:40;;;;;;;6.60;4.00;;;;;;;19.43;45.07;95390.06;5052703;28;20197;-63
2022/09/25 09:19:08;;;;;;;6.13;3.97;;;;;;;19.98;44.06;95416.59;5052542;28;20215;-63
2022/09/25 09:22:02;;;;;;;7.80;4.05;;;;;;;20.31;44.41;95381.13;5052611;28;20212;-61
2022/09/25 09:24:54;;;;;;;6.65;4.70;;;;;;;20.71;43.04;95321.38;5052402;28;20743;-61
2022/09/25 09:27:44;;;;;;;6.47;4.40;;;;;;;20.70;43.72;95255.19;5043984;28;20242;-59
2022/09/25 09:30:45;;;;;;;6.50;4.00;;;;;;;20.50;42.67;95261.84;5052049;28;20225;-62
2022/09/25 09:33:15;;;;;;;3.53;3.20;;;;;;;20.51;41.62;95274.56;5038065;28;20235;-61
2022/09/25 09:36:05;;;;;;;5.88;3.03;;;;;;;20.26;41.88;95259.47;5050879;28;20197;-60
2022/09/25 09:38:49;;;;;;;3.75;3.28;;;;;;;20.23;41.44;95258.03;5052447;28;20197;-64
2022/09/25 09:41:57;;;;;;;3.03;2.72;;;;;;;20.34;41.40;95251.66;5052055;28;20220;-63
2022/09/25 09:44:34;;;;;;;6.72;3.20;;;;;;;20.43;40.49;95266.91;5024872;28;20232;-61
2022/09/25 09:47:02;;;;;;;5.97;4.03;;;;;;;20.65;40.83;95249.72;5052111;28;20189;-61
2022/09/25 09:49:34;;;;;;;4.65;3.33;;;;;;;21.05;40.31;95254.50;5051598;28;20218;-60
2022/09/25 09:52:16;;;;;;;4.38;3.50;;;;;;;21.50;39.71;95267.22;5052038;28;20173;-61
2022/09/25 09:54:51;;;;;;;6.32;3.63;;;;;;;21.35;39.85;95245.72;5052167;28;20213;-63
2022/09/25 09:57:21;;;;;;;6.18;3.13;;;;;;;21.59;39.82;95232.47;5051671;28;20580;-61
2022/09/25 10:00:01;;;;;;;3.33;3.03;;;;;;;21.34;41.60;95163.13;5050412;28;20212;-60
2022/09/25 10:02:29;;;;;;;5.28;3.47;;;;;;;21.24;41.33;95176.38;5051782;28;20584;-63
2022/09/25 10:04:58;;;;;;;5.50;3.42;;;;;;;21.20;40.43;95187.25;5051756;28;20232;-62
2022/09/25 10:07:27;;;;;;;5.07;3.45;;;;;;;21.26;40.97;95183.94;5051561;28;20294;-63
2022/09/25 10:09:55;;;;;;;5.65;3.45;;;;;;;21.74;41.25;95159.94;5051249;28;20712;-60
2022/09/25 10:12:24;;;;;;;5.30;3.65;;;;;;;21.88;40.94;95176.41;5050504;28;20213;-63
2022/09/25 10:14:50;;;;;;;5.32;3.30;;;;;;;22.04;40.45;95184.75;5051963;28;20205;-61
2022/09/25 10:17:18;;;;;;;5.47;3.45;;;;;;;21.78;39.80;95202.59;5051504;28;20256;-62
2022/09/25 10:19:53;;;;;;;10.45;3.53;;;;;;;21.65;40.14;95185.16;5051807;28;20294;-64
2022/09/25 10:22:27;;;;;;;5.53;2.95;;;;;;;21.43;40.21;95169.81;5050145;28;20181;-63
2022/09/25 10:24:52;;;;;;;6.97;3.40;;;;;;;21.33;39.80;95179.66;5050071;28;20328;-63
2022/09/25 10:27:27;;;;;;;8.23;3.30;;;;;;;21.85;40.59;95150.91;5051282;28;20700;-63
2022/09/25 10:30:08;;;;;;;5.32;3.20;;;;;;;22.10;40.09;95186.59;5050021;28;20221;-63
2022/09/25 10:32:42;;;;;;;5.97;2.80;;;;;;;22.53;38.84;95218.41;5051253;28;20193;-61
2022/09/25 10:35:16;;;;;;;3.30;3.00;;;;;;;22.84;36.57;95282.88;5051200;28;20227;-59
2022/09/25 10:37:43;;;;;;;3.92;3.00;;;;;;;23.10;36.35;95252.72;5051260;28;20185;-62
2022/09/25 10:40:30;;;;;;;4.07;2.88;;;;;;;23.02;36.71;95233.91;5050169;28;20294;-63
2022/09/25 10:43:03;;;;;;;4.05;2.67;;;;;;;23.42;36.39;95242.69;5051139;28;20235;-61
2022/09/25 10:45:30;;;;;;;3.08;2.80;;;;;;;23.72;35.23;95282.94;5050648;28;20710;-63
2022/09/25 10:50:40;;;;;;;5.30;2.92;;;;;;;24.17;34.23;95303.09;5051454;28;20232;-62
2022/09/25 10:53:27;;;;;;;3.97;3.35;;;;;;;24.24;33.90;95297.91;5049984;28;20722;-63
2022/09/25 10:55:59;;;;;;;5.00;2.70;;;;;;;24.65;33.28;95304.53;5049795;28;20802;-63
2022/09/25 10:58:38;;;;;;;4.65;3.22;;;;;;;24.73;33.55;95293.16;5051069;28;20322;-62
2022/09/25 11:01:07;;;;;;;3.92;2.90;;;;;;;24.93;32.07;95343.38;5051007;28;20196;-60
2022/09/25 11:03:39;;;;;;;3.33;3.05;;;;;;;25.02;32.69;95297.13;5049603;28;20185;-62
2022/09/25 11:06:19;;;;;;;4.65;2.97;;;;;;;25.12;32.51;95300.13;5050968;28;20226;-63
2022/09/25 11:08:48;;;;;;;5.07;2.60;;;;;;;25.03;31.48;95324.75;5051178;28;20298;-63
2022/09/25 11:11:25;;;;;;;3.70;2.75;;;;;;;25.26;32.01;95299.09;5050908;28;20193;-63
2022/09/25 11:13:54;;;;;;;2.95;2.40;;;;;;;25.64;31.46;95313.00;5050788;28;20213;-63
2022/09/25 11:16:20;;;;;;;4.10;3.08;;;;;;;25.97;31.30;95318.91;5051093;28;20216;-63
2022/09/25 11:18:49;;;;;;;3.42;2.97;;;;;;;26.18;30.95;95325.66;5050964;28;20213;-63
2022/09/25 11:21:37;;;;;;;2.35;2.15;;;;;;;26.53;30.07;95330.22;5050538;28;20565;-63
2022/09/25 11:24:06;;;;;;;3.33;2.53;;;;;;;26.64;29.48;95347.78;5050878;28;20217;-64
2022/09/25 11:26:57;;;;;;;2.95;2.60;;;;;;;26.46;29.38;95344.34;5050772;28;20186;-62
2022/09/25 11:29:37;;;;;;;3.95;2.50;;;;;;;26.45;29.04;95353.16;5050930;28;20713;-63
2022/09/25 11:32:24;;;;;;;2.50;2.38;;;;;;;26.68;30.29;95272.53;5049376;28;20197;-63
2022/09/25 11:35:41;;;;;;;3.15;2.65;;;;;;;26.77;29.87;95304.38;5050748;28;20209;-61
2022/09/25 11:38:09;;;;;;;4.18;2.72;;;;;;;26.82;29.71;95281.06;5050985;28;20186;-63
2022/09/25 11:41:11;;;;;;;4.82;2.47;;;;;;;26.76;29.67;95294.97;5050539;28;20233;-63
2022/09/25 11:43:42;;;;;;;4.05;2.40;;;;;;;26.94;28.70;95326.31;5050642;28;20244;-64
2022/09/25 11:46:49;;;;;;;8.35;2.95;;;;;;;26.32;28.38;95317.50;5050610;28;20681;-59
2022/09/25 11:49:27;;;;;;;4.05;2.63;;;;;;;26.23;29.58;95251.00;4969908;28;20637;-63
2022/09/25 11:52:10;;;;;;;3.10;2.80;;;;;;;26.40;29.25;95270.31;5043877;28;20205;-62
2022/09/25 11:55:06;;;;;;;8.57;6.22;;;;;;;26.69;29.58;95244.59;5050597;28;20213;-61
2022/09/25 11:57:44;;;;;;;6.35;3.90;;;;;;;26.73;28.63;95283.13;5051316;28;20664;-61
2022/09/25 12:00:19;;;;;;;4.13;3.53;;;;;;;26.59;29.85;95219.81;5053697;28;20248;-60
2022/09/25 12:02:47;;;;;;;12.30;5.53;;;;;;;26.57;30.21;95200.16;5052568;28;20192;-60
2022/09/25 12:05:26;;;;;;;3.70;3.38;;;;;;;26.78;30.39;95181.53;5052032;28;20689;-60
2022/09/25 12:08:16;;;;;;;3.88;3.13;;;;;;;26.86;29.32;95235.25;5053408;28;20200;-61
2022/09/25 12:10:48;;;;;;;8.30;4.30;;;;;;;27.11;28.30;95267.34;5053581;28;20300;-63
2022/09/25 12:13:26;;;;;;;2.45;2.25;;;;;;;27.23;27.06;95304.78;5053686;28;20272;-63
2022/09/25 12:16:09;;;;;;;4.60;2.60;;;;;;;27.31;26.79;95301.88;5052170;28;20228;-60
2022/09/25 12:19:00;;;;;;;4.50;2.50;;;;;;;27.28;26.71;95321.38;5052268;28;20254;-63